KRCA/RCA METAR and TAF weather

Enter ICAO airport designator
Station Type Date Time Source
KRCA METAR 2021/05/13 04:56 UTC NOAA

KRCA 130456Z 26003KT 10SM CLR 06/02 A3019 RMK AO2A SLP227 T00590016 PNO $


Station Type Date Time Source
KRCA Decoded METAR 2021/05/13 04:56 UTC NOAA

Ellsworth Air Force Base, SD, United States (KRCA) 44-09N 103-06W
May 13, 2021 - 12:56 AM EDT / 2021.05.13 0456 UTC
Wind: from the W (260 degrees) at 3 MPH (3 KT):0
Visibility: 10 mile(s):0
Sky conditions: clear
Temperature: 42.6 F (5.9 C)
Dew Point: 34.9 F (1.6 C)
Relative Humidity: 73%
Pressure (altimeter): 30.19 in. Hg (1022 hPa)
ob: KRCA 130456Z 26003KT 10SM CLR 06/02 A3019 RMK AO2A SLP227 T00590016 PNO
cycle: 5

Station Type Date Time Source
KRCA TAF 2021/05/13 03:07 UTC NOAA

TAF KRCA 130300Z 1303/1409 VRB06KT 9999 SCT100 510012 QNH3015INS
BECMG 1319/1320 VRB06KT 9999 BKN060 620607 510012 QNH3003INS
TEMPO 1320/1324 9000 -SHRA TX18/1319Z TN03/1311Z

Example: see airport list